Stallovarre — LHBG — position and weather

sailwx.info

Track history (hours):
 
Tides and Currents Weather Stations Pressure Air Temp Water Temp Dewpoint Dewpoint Depression Visibility Wind Speed Wind Dir Waves Ship Positions

Stallovarre

Last reported at 2015-Jan-13 18:24 UTC. Time now 2015-Jan-27 21:00 UTC.
Position N 59°47' E 005°48'.
Warning: this ship's position is 14 days out of date.

Length 54 m; draft 3.5 m.

MMSI: 257374400.

Date/timePositionNaut miles runAvg speedWind from/ knotsBaromVisibWave heightAir tempDewpointWater temp
2015-Jan-13 18:24N 59°47' E 005°48'  
2015-Jan-09 00:22N 59°30' E 005°13'2010.3
2015-Jan-08 22:26N 59°12' E 005°29'1011.5
2015-Jan-08 21:33N 59°12' E 005°49'3 2.8
2015-Jan-08 20:33N 59°10' E 005°53'0 0.2
2015-Jan-08 19:33N 59°10' E 005°53'4 3.6
2015-Jan-08 18:33N 59°14' E 005°51'4 3.6
2015-Jan-08 17:33N 59°10' E 005°53'3 2.7
2015-Jan-08 16:33N 59°12' E 005°56'3 2.7
2015-Jan-08 15:33N 59°10' E 005°53'1 1.2
2015-Jan-08 14:33N 59°11' E 005°54'3 2.6
2015-Jan-08 13:33N 59°14' E 005°52'3 3.4
2015-Jan-08 12:33N 59°10' E 005°53'4 3.9
2015-Jan-08 11:33N 59°14' E 005°52'7 6.6
2015-Jan-08 10:33N 59°21' E 005°55'1 1.4
2015-Jan-08 09:33N 59°21' E 005°58'6 5.8
2015-Jan-08 08:33N 59°15' E 005°54'3 2.9
2015-Jan-08 07:33N 59°12' E 005°55'1 1.0
2015-Jan-08 06:33N 59°12' E 005°54'2 1.8
2015-Jan-08 05:33N 59°13' E 005°52'5 4.9
2015-Jan-08 04:33N 59°08' E 005°54'0 0.0
2015-Jan-08 03:51N 59°08' E 005°54'0 0.0
2015-Jan-08 03:33N 59°08' E 005°54'0 0.0
2015-Jan-08 02:33N 59°08' E 005°54'0 0.0
2015-Jan-08 00:33N 59°08' E 005°54'0 0.0
2015-Jan-07 23:33N 59°08' E 005°54'2 0.7
2015-Jan-07 20:33N 59°10' E 005°53'0 0.1
2015-Jan-07 19:33N 59°10' E 005°53'4 3.6
2015-Jan-07 18:33N 59°14' E 005°51'4 3.6
2015-Jan-07 17:33N 59°10' E 005°53'3 3.2
2015-Jan-07 16:33N 59°13' E 005°55'3 3.2
2015-Jan-07 15:33N 59°10' E 005°53'1 1.2
2015-Jan-07 14:33N 59°11' E 005°54'3 2.7
2015-Jan-07 13:33N 59°14' E 005°51'3 3.5
2015-Jan-07 12:33N 59°10' E 005°53'4 3.8
2015-Jan-07 11:33N 59°14' E 005°52'7 6.9
2015-Jan-07 10:33N 59°21' E 005°55'1 1.1
2015-Jan-07 09:33N 59°21' E 005°58'5 5.1
2015-Jan-07 08:33N 59°16' E 005°54'4 3.7
2015-Jan-07 07:33N 59°12' E 005°56'2 2.1
2015-Jan-07 06:33N 59°11' E 005°53'3 3.1
2015-Jan-07 05:33N 59°14' E 005°52'5 5.5
2015-Jan-07 04:33N 59°08' E 005°54'0 0.0
2015-Jan-07 03:33N 59°08' E 005°54'0 0.0
2015-Jan-07 02:33N 59°08' E 005°54'0 0.0
2015-Jan-07 01:33N 59°08' E 005°54'0 0.0
2015-Jan-07 00:33N 59°08' E 005°54'0 0.0
2015-Jan-06 23:33N 59°08' E 005°54'2 2.1
2015-Jan-06 22:33N 59°10' E 005°53'3 3.1
2015-Jan-06 21:33N 59°13' E 005°55'3 3.1
2015-Jan-06 20:34N 59°10' E 005°53'0 0.0
2015-Jan-06 19:34N 59°10' E 005°53'4 3.5
2015-Jan-06 18:33N 59°14' E 005°51'4 3.6
2015-Jan-06 17:33N 59°10' E 005°53'3 2.7
2015-Jan-06 16:33N 59°12' E 005°56'3 2.7
2015-Jan-06 15:33N 59°10' E 005°53'1 1.2
2015-Jan-06 14:34N 59°11' E 005°54'3 2.8
2015-Jan-06 13:33N 59°14' E 005°51'4 3.5
2015-Jan-06 12:33N 59°10' E 005°53'4 3.6
2015-Jan-06 11:33N 59°14' E 005°52'7 7.5
2015-Jan-06 10:33N 59°21' E 005°57'1 0.6
2015-Jan-06 09:33N 59°21' E 005°58'5 5.3
2015-Jan-06 08:33N 59°16' E 005°54'4 3.5
2015-Jan-06 07:34N 59°12' E 005°55'2 1.7
2015-Jan-06 06:33N 59°11' E 005°54'3 2.7
2015-Jan-06 05:33N 59°14' E 005°52'5 5.4
2015-Jan-06 04:34N 59°08' E 005°54'0 0.0
2015-Jan-06 03:33N 59°08' E 005°54'0 0.0
2015-Jan-06 02:33N 59°08' E 005°54'0 0.0
2015-Jan-06 01:33N 59°08' E 005°54'0 0.0
2015-Jan-06 00:33N 59°08' E 005°54'0 0.0
2015-Jan-05 23:34N 59°08' E 005°54'2 2.0
2015-Jan-05 22:34N 59°10' E 005°53'3 2.8
2015-Jan-05 21:34N 59°13' E 005°56'3 2.8
2015-Jan-05 20:33N 59°10' E 005°53'0 0.1
2015-Jan-05 19:33N 59°10' E 005°53'4 3.6
2015-Jan-05 18:33N 59°14' E 005°51'4 3.6
2015-Jan-05 17:33N 59°10' E 005°53'3 3.4
2015-Jan-05 16:34N 59°13' E 005°55'3 3.4
2015-Jan-05 15:34N 59°10' E 005°53'1 1.2
2015-Jan-05 14:33N 59°11' E 005°54'3 2.8
2015-Jan-05 13:34N 59°14' E 005°51'4 3.6
2015-Jan-05 12:33N 59°10' E 005°53'4 3.6
2015-Jan-05 11:33N 59°14' E 005°51'7 7.5
2015-Jan-05 10:33N 59°21' E 005°56'1 0.8
2015-Jan-05 09:33N 59°21' E 005°58'6 6.1
2015-Jan-05 08:34N 59°15' E 005°53'3 2.7
2015-Jan-05 07:33N 59°12' E 005°55'1 0.8
2015-Jan-05 06:34N 59°12' E 005°54'2 1.6
2015-Jan-05 05:34N 59°13' E 005°52'5 4.7
2015-Jan-05 04:34N 59°08' E 005°54'0 0.0
2015-Jan-05 03:34N 59°08' E 005°54'0 0.0
2015-Jan-05 02:34N 59°08' E 005°54'0 0.0
2015-Jan-05 01:34N 59°08' E 005°54'0 0.0
2015-Jan-05 00:34N 59°08' E 005°54'0 0.0
2015-Jan-04 23:34N 59°08' E 005°54'4 3.8
2015-Jan-04 22:34N 59°12' E 005°53'2 1.6
2015-Jan-04 21:34N 59°10' E 005°53'2 2.1
2015-Jan-04 20:34N 59°12' E 005°52'1 1.2
2015-Jan-04 19:34N 59°12' E 005°54'0 0.1
2015-Jan-04 18:34N 59°12' E 005°54'2 1.5
2015-Jan-04 17:34N 59°10' E 005°53'0 0.2
2015-Jan-04 16:33N 59°10' E 005°53'1 1.0
2015-Jan-04 15:34N 59°09' E 005°53'1211.6
2015-Jan-04 14:33N 58°58' E 005°44'0 0.1
2015-Jan-04 13:33N 58°58' E 005°44'0 0.0
2015-Jan-04 12:33N 58°58' E 005°44'0 0.0
2015-Jan-04 11:33N 58°58' E 005°44'0 0.0
2015-Jan-04 10:34N 58°58' E 005°44'0 0.0
2015-Jan-04 09:34N 58°58' E 005°44'0 0.0
2015-Jan-04 08:34N 58°58' E 005°44'0 0.0
2015-Jan-04 07:34N 58°58' E 005°44'0 0.0
2015-Jan-04 06:34N 58°58' E 005°44'0 0.0
2015-Jan-04 05:33N 58°58' E 005°44'0 0.0
2015-Jan-04 04:34N 58°58' E 005°44'0 0.0
2015-Jan-04 03:33N 58°58' E 005°44'0 0.0
2015-Jan-04 02:33N 58°58' E 005°44'0 0.0
2015-Jan-04 01:33N 58°58' E 005°44'0 0.0
2015-Jan-04 00:34N 58°58' E 005°44'0 0.0
2015-Jan-03 23:34N 58°58' E 005°44'0 0.0
2015-Jan-03 22:33N 58°58' E 005°44'0 0.0
2015-Jan-03 21:33N 58°58' E 005°44'0 0.0
2015-Jan-03 20:34N 58°58' E 005°44'0 0.0
2015-Jan-03 19:34N 58°58' E 005°44'0 0.0
2015-Jan-03 18:34N 58°58' E 005°44'  
Track history (hours):
 
Tides and Currents Weather Stations Pressure Air Temp Water Temp Dewpoint Dewpoint Depression Visibility Wind Speed Wind Dir Waves Ship Positions

Stallovarre

Last reported at 2015-Jan-13 18:24 UTC. Time now 2015-Jan-27 21:00 UTC.
Position N 59°47' E 005°48'.
Warning: this ship's position is 14 days out of date.

Length 54 m; draft 3.5 m.

MMSI: 257374400.

Date/timePositionNaut miles runAvg speedWind from/ knotsBaromVisibWave heightAir tempDewpointWater temp
2015-Jan-13 18:24N 59°47' E 005°48'  
2015-Jan-09 00:22N 59°30' E 005°13'2010.3
2015-Jan-08 22:26N 59°12' E 005°29'1011.5
2015-Jan-08 21:33N 59°12' E 005°49'3 2.8
2015-Jan-08 20:33N 59°10' E 005°53'0 0.2
2015-Jan-08 19:33N 59°10' E 005°53'4 3.6
2015-Jan-08 18:33N 59°14' E 005°51'4 3.6
2015-Jan-08 17:33N 59°10' E 005°53'3 2.7
2015-Jan-08 16:33N 59°12' E 005°56'3 2.7
2015-Jan-08 15:33N 59°10' E 005°53'1 1.2
2015-Jan-08 14:33N 59°11' E 005°54'3 2.6
2015-Jan-08 13:33N 59°14' E 005°52'3 3.4
2015-Jan-08 12:33N 59°10' E 005°53'4 3.9
2015-Jan-08 11:33N 59°14' E 005°52'7 6.6
2015-Jan-08 10:33N 59°21' E 005°55'1 1.4
2015-Jan-08 09:33N 59°21' E 005°58'6 5.8
2015-Jan-08 08:33N 59°15' E 005°54'3 2.9
2015-Jan-08 07:33N 59°12' E 005°55'1 1.0
2015-Jan-08 06:33N 59°12' E 005°54'2 1.8
2015-Jan-08 05:33N 59°13' E 005°52'5 4.9
2015-Jan-08 04:33N 59°08' E 005°54'0 0.0
2015-Jan-08 03:51N 59°08' E 005°54'0 0.0
2015-Jan-08 03:33N 59°08' E 005°54'0 0.0
2015-Jan-08 02:33N 59°08' E 005°54'0 0.0
2015-Jan-08 00:33N 59°08' E 005°54'0 0.0
2015-Jan-07 23:33N 59°08' E 005°54'2 0.7
2015-Jan-07 20:33N 59°10' E 005°53'0 0.1
2015-Jan-07 19:33N 59°10' E 005°53'4 3.6
2015-Jan-07 18:33N 59°14' E 005°51'4 3.6
2015-Jan-07 17:33N 59°10' E 005°53'3 3.2
2015-Jan-07 16:33N 59°13' E 005°55'3 3.2
2015-Jan-07 15:33N 59°10' E 005°53'1 1.2
2015-Jan-07 14:33N 59°11' E 005°54'3 2.7
2015-Jan-07 13:33N 59°14' E 005°51'3 3.5
2015-Jan-07 12:33N 59°10' E 005°53'4 3.8
2015-Jan-07 11:33N 59°14' E 005°52'7 6.9
2015-Jan-07 10:33N 59°21' E 005°55'1 1.1
2015-Jan-07 09:33N 59°21' E 005°58'5 5.1
2015-Jan-07 08:33N 59°16' E 005°54'4 3.7
2015-Jan-07 07:33N 59°12' E 005°56'2 2.1
2015-Jan-07 06:33N 59°11' E 005°53'3 3.1
2015-Jan-07 05:33N 59°14' E 005°52'5 5.5
2015-Jan-07 04:33N 59°08' E 005°54'0 0.0
2015-Jan-07 03:33N 59°08' E 005°54'0 0.0
2015-Jan-07 02:33N 59°08' E 005°54'0 0.0
2015-Jan-07 01:33N 59°08' E 005°54'0 0.0
2015-Jan-07 00:33N 59°08' E 005°54'0 0.0
2015-Jan-06 23:33N 59°08' E 005°54'2 2.1
2015-Jan-06 22:33N 59°10' E 005°53'3 3.1
2015-Jan-06 21:33N 59°13' E 005°55'3 3.1
2015-Jan-06 20:34N 59°10' E 005°53'0 0.0
2015-Jan-06 19:34N 59°10' E 005°53'4 3.5
2015-Jan-06 18:33N 59°14' E 005°51'4 3.6
2015-Jan-06 17:33N 59°10' E 005°53'3 2.7
2015-Jan-06 16:33N 59°12' E 005°56'3 2.7
2015-Jan-06 15:33N 59°10' E 005°53'1 1.2
2015-Jan-06 14:34N 59°11' E 005°54'3 2.8
2015-Jan-06 13:33N 59°14' E 005°51'4 3.5
2015-Jan-06 12:33N 59°10' E 005°53'4 3.6
2015-Jan-06 11:33N 59°14' E 005°52'7 7.5
2015-Jan-06 10:33N 59°21' E 005°57'1 0.6
2015-Jan-06 09:33N 59°21' E 005°58'5 5.3
2015-Jan-06 08:33N 59°16' E 005°54'4 3.5
2015-Jan-06 07:34N 59°12' E 005°55'2 1.7
2015-Jan-06 06:33N 59°11' E 005°54'3 2.7
2015-Jan-06 05:33N 59°14' E 005°52'5 5.4
2015-Jan-06 04:34N 59°08' E 005°54'0 0.0
2015-Jan-06 03:33N 59°08' E 005°54'0 0.0
2015-Jan-06 02:33N 59°08' E 005°54'0 0.0
2015-Jan-06 01:33N 59°08' E 005°54'0 0.0
2015-Jan-06 00:33N 59°08' E 005°54'0 0.0
2015-Jan-05 23:34N 59°08' E 005°54'2 2.0
2015-Jan-05 22:34N 59°10' E 005°53'3 2.8
2015-Jan-05 21:34N 59°13' E 005°56'3 2.8
2015-Jan-05 20:33N 59°10' E 005°53'0 0.1
2015-Jan-05 19:33N 59°10' E 005°53'4 3.6
2015-Jan-05 18:33N 59°14' E 005°51'4 3.6
2015-Jan-05 17:33N 59°10' E 005°53'3 3.4
2015-Jan-05 16:34N 59°13' E 005°55'3 3.4
2015-Jan-05 15:34N 59°10' E 005°53'1 1.2
2015-Jan-05 14:33N 59°11' E 005°54'3 2.8
2015-Jan-05 13:34N 59°14' E 005°51'4 3.6
2015-Jan-05 12:33N 59°10' E 005°53'4 3.6
2015-Jan-05 11:33N 59°14' E 005°51'7 7.5
2015-Jan-05 10:33N 59°21' E 005°56'1 0.8
2015-Jan-05 09:33N 59°21' E 005°58'6 6.1
2015-Jan-05 08:34N 59°15' E 005°53'3 2.7
2015-Jan-05 07:33N 59°12' E 005°55'1 0.8
2015-Jan-05 06:34N 59°12' E 005°54'2 1.6
2015-Jan-05 05:34N 59°13' E 005°52'5 4.7
2015-Jan-05 04:34N 59°08' E 005°54'0 0.0
2015-Jan-05 03:34N 59°08' E 005°54'0 0.0
2015-Jan-05 02:34N 59°08' E 005°54'0 0.0
2015-Jan-05 01:34N 59°08' E 005°54'0 0.0
2015-Jan-05 00:34N 59°08' E 005°54'0 0.0
2015-Jan-04 23:34N 59°08' E 005°54'4 3.8
2015-Jan-04 22:34N 59°12' E 005°53'2 1.6
2015-Jan-04 21:34N 59°10' E 005°53'2 2.1
2015-Jan-04 20:34N 59°12' E 005°52'1 1.2
2015-Jan-04 19:34N 59°12' E 005°54'0 0.1
2015-Jan-04 18:34N 59°12' E 005°54'2 1.5
2015-Jan-04 17:34N 59°10' E 005°53'0 0.2
2015-Jan-04 16:33N 59°10' E 005°53'1 1.0
2015-Jan-04 15:34N 59°09' E 005°53'1211.6
2015-Jan-04 14:33N 58°58' E 005°44'0 0.1
2015-Jan-04 13:33N 58°58' E 005°44'0 0.0
2015-Jan-04 12:33N 58°58' E 005°44'0 0.0
2015-Jan-04 11:33N 58°58' E 005°44'0 0.0
2015-Jan-04 10:34N 58°58' E 005°44'0 0.0
2015-Jan-04 09:34N 58°58' E 005°44'0 0.0
2015-Jan-04 08:34N 58°58' E 005°44'0 0.0
2015-Jan-04 07:34N 58°58' E 005°44'0 0.0
2015-Jan-04 06:34N 58°58' E 005°44'0 0.0
2015-Jan-04 05:33N 58°58' E 005°44'0 0.0
2015-Jan-04 04:34N 58°58' E 005°44'0 0.0
2015-Jan-04 03:33N 58°58' E 005°44'0 0.0
2015-Jan-04 02:33N 58°58' E 005°44'0 0.0
2015-Jan-04 01:33N 58°58' E 005°44'0 0.0
2015-Jan-04 00:34N 58°58' E 005°44'0 0.0
2015-Jan-03 23:34N 58°58' E 005°44'0 0.0
2015-Jan-03 22:33N 58°58' E 005°44'0 0.0
2015-Jan-03 21:33N 58°58' E 005°44'0 0.0
2015-Jan-03 20:34N 58°58' E 005°44'0 0.0
2015-Jan-03 19:34N 58°58' E 005°44'0 0.0
2015-Jan-03 18:34N 58°58' E 005°44'  

Dump ship's entire track history